createdAt,value
2018-12-23T00:00:16.891Z,1012.72
2018-12-23T00:00:45.045Z,1012.7
2018-12-23T00:01:13.254Z,1012.74
2018-12-23T00:01:41.471Z,1012.69
2018-12-23T00:02:09.485Z,1012.77
2018-12-23T00:02:37.405Z,1012.76
2018-12-23T00:03:05.286Z,1012.75
2018-12-23T00:03:33.398Z,1012.77
2018-12-23T00:04:01.375Z,1012.79
2018-12-23T00:04:29.303Z,1012.8
2018-12-23T00:04:57.107Z,1012.8
2018-12-23T00:05:25.141Z,1012.81
2018-12-23T00:05:53.171Z,1012.83
2018-12-23T00:06:21.003Z,1012.83
2018-12-23T00:06:48.709Z,1012.82
2018-12-23T00:07:16.578Z,1012.84
2018-12-23T00:07:44.402Z,1012.84
2018-12-23T00:08:12.375Z,1012.85
2018-12-23T00:08:41.106Z,1012.85
2018-12-23T00:09:08.899Z,1012.87
2018-12-23T00:09:36.841Z,1012.85
2018-12-23T00:10:04.647Z,1012.89
2018-12-23T00:11:00.521Z,1012.96
2018-12-23T00:11:28.598Z,1012.91
2018-12-23T00:11:56.707Z,1012.91
2018-12-23T00:12:24.657Z,1012.95
2018-12-23T00:13:20.368Z,1012.91
2018-12-23T00:13:48.150Z,1012.95
2018-12-23T00:14:16.210Z,1012.95
2018-12-23T00:14:44.058Z,1012.95
2018-12-23T00:15:12.169Z,1012.95
2018-12-23T00:15:40.005Z,1012.98
2018-12-23T00:16:07.922Z,1012.98
2018-12-23T00:16:35.916Z,1012.94
2018-12-23T00:17:03.731Z,1012.95
2018-12-23T00:17:31.707Z,1012.95
2018-12-23T00:17:59.594Z,1012.97
2018-12-23T00:18:27.604Z,1012.98
2018-12-23T00:18:55.652Z,1012.96
2018-12-23T00:19:23.433Z,1012.98
2018-12-23T00:19:51.947Z,1013
2018-12-23T00:20:19.967Z,1012.99
2018-12-23T00:20:47.821Z,1012.98
2018-12-23T00:21:15.740Z,1012.95
2018-12-23T00:21:43.532Z,1012.96
2018-12-23T00:22:11.286Z,1012.93
2018-12-23T00:22:39.308Z,1012.98
2018-12-23T00:23:07.242Z,1012.97
2018-12-23T00:23:35.190Z,1012.97
2018-12-23T00:24:02.990Z,1012.99
2018-12-23T00:24:30.789Z,1012.97
2018-12-23T00:24:58.627Z,1012.93
2018-12-23T00:25:26.262Z,1012.94
2018-12-23T00:25:54.181Z,1012.93
2018-12-23T00:26:22.392Z,1012.92
2018-12-23T00:26:50.333Z,1012.92
2018-12-23T00:27:18.207Z,1012.96
2018-12-23T00:27:46.371Z,1012.99
2018-12-23T00:28:13.853Z,1012.98
2018-12-23T00:28:40.817Z,1012.97
2018-12-23T00:29:08.603Z,1013
2018-12-23T00:29:36.010Z,1012.99
2018-12-23T00:30:03.249Z,1013.02
2018-12-23T00:30:31.026Z,1013.03
2018-12-23T00:30:58.359Z,1013.03
2018-12-23T00:31:25.895Z,1013.03
2018-12-23T00:31:53.859Z,1013.09
2018-12-23T00:32:22.025Z,1013.03
2018-12-23T00:32:49.960Z,1013.04
2018-12-23T00:33:18.372Z,1013.05
2018-12-23T00:33:45.737Z,1013.07
2018-12-23T00:34:13.531Z,1013.05
2018-12-23T00:34:40.432Z,1013.09
2018-12-23T00:35:06.978Z,1013.06
2018-12-23T00:35:34.449Z,1013.06
2018-12-23T00:36:02.564Z,1013.11
2018-12-23T00:36:30.523Z,1013.06
2018-12-23T00:36:57.846Z,1013.08
2018-12-23T00:37:25.778Z,1013.07
2018-12-23T00:37:53.769Z,1013.08
2018-12-23T00:38:21.571Z,1013.06
2018-12-23T00:38:49.858Z,1013.07
2018-12-23T00:39:17.907Z,1013.05
2018-12-23T00:39:45.983Z,1013.05
2018-12-23T00:40:13.677Z,1013.06
2018-12-23T00:40:41.612Z,1013.03
2018-12-23T00:41:09.526Z,1013.02
2018-12-23T00:41:37.592Z,1013.03
2018-12-23T00:42:06.100Z,1013.07
2018-12-23T00:42:34.018Z,1013.07
2018-12-23T00:43:01.991Z,1013.06
2018-12-23T00:43:29.908Z,1013.07
2018-12-23T00:43:57.594Z,1013.05
2018-12-23T00:44:25.289Z,1013.11
2018-12-23T00:44:53.329Z,1013.12
2018-12-23T00:45:21.237Z,1013.13
2018-12-23T00:45:49.310Z,1013.06
2018-12-23T00:46:17.217Z,1013.11
2018-12-23T00:46:45.107Z,1013.09
2018-12-23T00:47:12.391Z,1013.11
2018-12-23T00:47:39.855Z,1013.13
2018-12-23T00:48:07.774Z,1013.09
2018-12-23T00:48:35.500Z,1013.14
2018-12-23T00:49:02.881Z,1013.1
2018-12-23T00:49:30.417Z,1013.1
2018-12-23T00:49:58.290Z,1013.14
2018-12-23T00:50:25.453Z,1013.11
2018-12-23T00:50:52.458Z,1013.14
2018-12-23T00:51:19.981Z,1013.12
2018-12-23T00:51:46.735Z,1013.16
2018-12-23T00:52:14.029Z,1013.12
2018-12-23T00:52:42.134Z,1013.17
2018-12-23T00:53:10.119Z,1013.11
2018-12-23T00:53:37.718Z,1013.17
2018-12-23T00:54:05.544Z,1013.14
2018-12-23T00:54:31.814Z,1013.12
2018-12-23T00:54:58.783Z,1013.14
2018-12-23T00:55:25.662Z,1013.13
2018-12-23T00:55:53.450Z,1013.16
2018-12-23T00:56:21.292Z,1013.16
2018-12-23T00:56:48.613Z,1013.13
2018-12-23T00:57:16.087Z,1013.11
2018-12-23T00:57:43.631Z,1013.1
2018-12-23T00:58:11.118Z,1013.12
2018-12-23T00:58:37.871Z,1013.12
2018-12-23T00:59:04.882Z,1013.06
2018-12-23T00:59:31.641Z,1013.06
2018-12-23T00:59:58.416Z,1013.14
2018-12-23T01:00:25.649Z,1013.05
2018-12-23T01:00:52.069Z,1013.07
2018-12-23T01:01:18.634Z,1013.13
2018-12-23T01:01:46.311Z,1013.14
2018-12-23T01:02:14.262Z,1013.15
2018-12-23T01:02:42.254Z,1013.07
2018-12-23T01:03:10.224Z,1013.12
2018-12-23T01:03:38.267Z,1013.17
2018-12-23T01:04:06.278Z,1013.2
2018-12-23T01:04:34.125Z,1013.18
2018-12-23T01:05:02.080Z,1013.18
2018-12-23T01:05:29.994Z,1013.18
2018-12-23T01:05:57.799Z,1013.12
2018-12-23T01:06:26.049Z,1013.14
2018-12-23T01:06:53.161Z,1013.18
2018-12-23T01:07:20.814Z,1013.23
2018-12-23T01:07:48.782Z,1013.15
2018-12-23T01:08:16.500Z,1013.2
2018-12-23T01:08:44.444Z,1013.19
2018-12-23T01:09:11.371Z,1013.25
2018-12-23T01:09:38.142Z,1013.22
2018-12-23T01:10:05.307Z,1013.24
2018-12-23T01:10:32.272Z,1013.24
2018-12-23T01:10:59.579Z,1013.14
2018-12-23T01:11:26.098Z,1013.21
2018-12-23T01:11:52.587Z,1013.22
2018-12-23T01:12:20.010Z,1013.22
2018-12-23T01:12:47.078Z,1013.22
2018-12-23T01:13:14.641Z,1013.19
2018-12-23T01:13:42.322Z,1013.23
2018-12-23T01:14:10.343Z,1013.22
2018-12-23T01:14:37.573Z,1013.26
2018-12-23T01:15:03.932Z,1013.22
2018-12-23T01:15:31.881Z,1013.2
2018-12-23T01:15:59.675Z,1013.24
2018-12-23T01:16:27.929Z,1013.22
2018-12-23T01:16:55.849Z,1013.2
2018-12-23T01:17:22.369Z,1013.24
2018-12-23T01:17:48.489Z,1013.16
2018-12-23T01:18:14.629Z,1013.18
2018-12-23T01:18:41.878Z,1013.18
2018-12-23T01:19:08.399Z,1013.18
2018-12-23T01:19:34.514Z,1013.21
2018-12-23T01:20:00.657Z,1013.17
2018-12-23T01:20:26.772Z,1013.18
2018-12-23T01:20:52.948Z,1013.16
2018-12-23T01:21:19.435Z,1013.15
2018-12-23T01:21:45.642Z,1013.17
2018-12-23T01:22:12.315Z,1013.12
2018-12-23T01:22:39.005Z,1013.15
2018-12-23T01:23:05.156Z,1013.14
2018-12-23T01:23:32.000Z,1013.12
2018-12-23T01:23:58.050Z,1013.18
2018-12-23T01:24:24.164Z,1013.17
2018-12-23T01:24:50.276Z,1013.16
2018-12-23T01:25:16.421Z,1013.19
2018-12-23T01:25:48.801Z,1013.18
2018-12-23T01:26:14.925Z,1013.22
2018-12-23T01:26:41.063Z,1013.25
2018-12-23T01:27:07.188Z,1013.19
2018-12-23T01:27:33.312Z,1013.21
2018-12-23T01:27:59.425Z,1013.17
2018-12-23T01:28:25.555Z,1013.15
2018-12-23T01:28:51.649Z,1013.2
2018-12-23T01:29:17.751Z,1013.22
2018-12-23T01:29:43.866Z,1013.17
2018-12-23T01:30:10.008Z,1013.25
2018-12-23T01:30:36.114Z,1013.25
2018-12-23T01:31:02.228Z,1013.27
2018-12-23T01:31:28.338Z,1013.24
2018-12-23T01:31:54.466Z,1013.23
2018-12-23T01:32:20.576Z,1013.22
2018-12-23T01:32:46.685Z,1013.29
2018-12-23T01:33:12.802Z,1013.24
2018-12-23T01:33:38.907Z,1013.25
2018-12-23T01:34:05.397Z,1013.23
2018-12-23T01:34:36.971Z,1013.24
2018-12-23T01:34:58.623Z,1013.23
2018-12-23T01:35:24.779Z,1013.23
2018-12-23T01:35:52.842Z,1013.27
2018-12-23T01:36:18.955Z,1013.24
2018-12-23T01:36:45.094Z,1013.29
2018-12-23T01:37:11.228Z,1013.25
2018-12-23T01:37:37.385Z,1013.27
2018-12-23T01:38:03.548Z,1013.31
2018-12-23T01:38:29.652Z,1013.26
2018-12-23T01:38:55.769Z,1013.26
2018-12-23T01:39:21.920Z,1013.32
2018-12-23T01:39:48.033Z,1013.35
2018-12-23T01:40:14.164Z,1013.34
2018-12-23T01:40:40.274Z,1013.3
2018-12-23T01:41:06.382Z,1013.33
2018-12-23T01:41:32.488Z,1013.31
2018-12-23T01:41:58.601Z,1013.33
2018-12-23T01:42:24.712Z,1013.31
2018-12-23T01:42:50.812Z,1013.3
2018-12-23T01:43:16.985Z,1013.36
2018-12-23T01:43:43.062Z,1013.36
2018-12-23T01:44:09.201Z,1013.33
2018-12-23T01:44:35.298Z,1013.37
2018-12-23T01:45:01.419Z,1013.37
2018-12-23T01:45:27.517Z,1013.39
2018-12-23T01:45:53.620Z,1013.4
2018-12-23T01:46:19.737Z,1013.38
2018-12-23T01:46:45.993Z,1013.4
2018-12-23T01:47:12.094Z,1013.42
2018-12-23T01:47:38.218Z,1013.41
2018-12-23T01:48:04.329Z,1013.42
2018-12-23T01:48:30.443Z,1013.41
2018-12-23T01:48:56.545Z,1013.4
2018-12-23T01:49:22.654Z,1013.41
2018-12-23T01:49:48.764Z,1013.39
2018-12-23T01:50:14.892Z,1013.39
2018-12-23T01:50:41.044Z,1013.42
2018-12-23T01:51:07.140Z,1013.36
2018-12-23T01:51:33.285Z,1013.46
2018-12-23T01:51:59.502Z,1013.46
2018-12-23T01:52:25.749Z,1013.51
2018-12-23T01:52:51.874Z,1013.51
2018-12-23T01:53:17.981Z,1013.44
2018-12-23T01:53:44.092Z,1013.49
2018-12-23T01:54:10.200Z,1013.52
2018-12-23T01:54:36.303Z,1013.5
2018-12-23T01:55:02.466Z,1013.49
2018-12-23T01:55:28.664Z,1013.52
2018-12-23T01:55:54.777Z,1013.48
2018-12-23T01:56:20.915Z,1013.54
2018-12-23T01:56:47.006Z,1013.46
2018-12-23T01:57:13.137Z,1013.49
2018-12-23T01:57:39.231Z,1013.47
2018-12-23T01:58:05.362Z,1013.51
2018-12-23T01:58:31.493Z,1013.41
2018-12-23T01:58:57.725Z,1013.49
2018-12-23T01:59:23.833Z,1013.48
2018-12-23T01:59:49.949Z,1013.48
2018-12-23T02:00:16.120Z,1013.48
2018-12-23T02:00:42.266Z,1013.48
2018-12-23T02:01:08.369Z,1013.46
2018-12-23T02:01:34.506Z,1013.46
2018-12-23T02:02:00.672Z,1013.45
2018-12-23T02:02:26.755Z,1013.46
2018-12-23T02:02:52.899Z,1013.46
2018-12-23T02:03:19.055Z,1013.42
2018-12-23T02:03:45.185Z,1013.42
2018-12-23T02:04:11.280Z,1013.49
2018-12-23T02:04:37.393Z,1013.41
2018-12-23T02:05:03.509Z,1013.43
2018-12-23T02:05:29.615Z,1013.45
2018-12-23T02:05:56.646Z,1013.46
2018-12-23T02:06:23.798Z,1013.5
2018-12-23T02:06:49.921Z,1013.47
2018-12-23T02:07:16.028Z,1013.44
2018-12-23T02:07:42.158Z,1013.51
2018-12-23T02:08:08.278Z,1013.48
2018-12-23T02:08:34.434Z,1013.48
2018-12-23T02:09:00.567Z,1013.46
2018-12-23T02:09:26.671Z,1013.44
2018-12-23T02:09:52.802Z,1013.44
2018-12-23T02:10:18.899Z,1013.52
2018-12-23T02:10:45.029Z,1013.49
2018-12-23T02:11:11.182Z,1013.58
2018-12-23T02:11:37.281Z,1013.43
2018-12-23T02:12:03.401Z,1013.55
2018-12-23T02:12:29.519Z,1013.49
2018-12-23T02:12:55.659Z,1013.52
2018-12-23T02:13:21.798Z,1013.51
2018-12-23T02:13:47.923Z,1013.53
2018-12-23T02:14:14.050Z,1013.53
2018-12-23T02:14:40.177Z,1013.57
2018-12-23T02:15:06.309Z,1013.57
2018-12-23T02:15:32.419Z,1013.57
2018-12-23T02:15:58.525Z,1013.63
2018-12-23T02:16:24.662Z,1013.56
2018-12-23T02:16:50.751Z,1013.63
2018-12-23T02:17:16.881Z,1013.54
2018-12-23T02:17:42.978Z,1013.52
2018-12-23T02:18:09.125Z,1013.56
2018-12-23T02:18:35.254Z,1013.55
2018-12-23T02:19:01.359Z,1013.57
2018-12-23T02:19:27.469Z,1013.56
2018-12-23T02:19:53.614Z,1013.56
2018-12-23T02:20:19.728Z,1013.54
2018-12-23T02:20:45.845Z,1013.54
2018-12-23T02:21:11.949Z,1013.57
2018-12-23T02:21:38.085Z,1013.55
2018-12-23T02:22:04.228Z,1013.48
2018-12-23T02:22:30.347Z,1013.49
2018-12-23T02:22:56.511Z,1013.5
2018-12-23T02:23:22.641Z,1013.52
2018-12-23T02:23:48.773Z,1013.54
2018-12-23T02:24:14.872Z,1013.49
2018-12-23T02:24:41.090Z,1013.53
2018-12-23T02:25:07.183Z,1013.57
2018-12-23T02:25:33.312Z,1013.52
2018-12-23T02:25:59.414Z,1013.54
2018-12-23T02:26:25.537Z,1013.54
2018-12-23T02:26:51.636Z,1013.54
2018-12-23T02:27:17.781Z,1013.52
2018-12-23T02:27:43.902Z,1013.52
2018-12-23T02:28:10.067Z,1013.54
2018-12-23T02:28:36.175Z,1013.56
2018-12-23T02:29:02.301Z,1013.52
2018-12-23T02:29:28.481Z,1013.51
2018-12-23T02:29:54.601Z,1013.52
2018-12-23T02:30:20.745Z,1013.51
2018-12-23T02:30:46.893Z,1013.51
2018-12-23T02:31:13.054Z,1013.51
2018-12-23T02:31:39.147Z,1013.53
2018-12-23T02:32:05.311Z,1013.47
2018-12-23T02:32:31.423Z,1013.52
2018-12-23T02:32:57.649Z,1013.5
2018-12-23T02:33:23.746Z,1013.49
2018-12-23T02:33:49.888Z,1013.51
2018-12-23T02:34:16.024Z,1013.51
2018-12-23T02:34:42.155Z,1013.53
2018-12-23T02:35:08.481Z,1013.54
2018-12-23T02:35:34.615Z,1013.52
2018-12-23T02:36:01.796Z,1013.55
2018-12-23T02:36:27.979Z,1013.56
2018-12-23T02:36:54.140Z,1013.57
2018-12-23T02:37:20.281Z,1013.56
2018-12-23T02:37:46.425Z,1013.55
2018-12-23T02:38:12.710Z,1013.55
2018-12-23T02:38:38.833Z,1013.62
2018-12-23T02:39:05.001Z,1013.6
2018-12-23T02:39:31.105Z,1013.61
2018-12-23T02:39:57.619Z,1013.62
2018-12-23T02:40:23.666Z,1013.59
2018-12-23T02:40:50.033Z,1013.63
2018-12-23T02:41:16.194Z,1013.62
2018-12-23T02:41:43.459Z,1013.62
2018-12-23T02:42:09.660Z,1013.68
2018-12-23T02:42:35.763Z,1013.59
2018-12-23T02:43:01.896Z,1013.59
2018-12-23T02:43:28.038Z,1013.61
2018-12-23T02:43:54.163Z,1013.61
2018-12-23T02:44:20.287Z,1013.57
2018-12-23T02:44:46.458Z,1013.66
2018-12-23T02:45:12.560Z,1013.63
2018-12-23T02:45:38.689Z,1013.59
2018-12-23T02:46:04.797Z,1013.67
2018-12-23T02:46:30.901Z,1013.66
2018-12-23T02:46:57.023Z,1013.63
2018-12-23T02:47:23.239Z,1013.65
2018-12-23T02:47:49.340Z,1013.59
2018-12-23T02:48:15.481Z,1013.6
2018-12-23T02:48:41.580Z,1013.63
2018-12-23T02:49:07.685Z,1013.64
2018-12-23T02:49:33.863Z,1013.64
2018-12-23T02:49:59.929Z,1013.66
2018-12-23T02:50:26.058Z,1013.68
2018-12-23T02:50:52.156Z,1013.69
2018-12-23T02:51:18.287Z,1013.66
2018-12-23T02:51:44.390Z,1013.69
2018-12-23T02:52:10.555Z,1013.65
2018-12-23T02:52:36.658Z,1013.69
2018-12-23T02:53:02.782Z,1013.69
2018-12-23T02:53:28.905Z,1013.69
2018-12-23T02:53:55.083Z,1013.7
2018-12-23T02:54:21.193Z,1013.7
2018-12-23T02:54:47.297Z,1013.7
2018-12-23T02:55:13.402Z,1013.73
2018-12-23T02:55:39.664Z,1013.7
2018-12-23T02:56:05.870Z,1013.69
2018-12-23T02:56:31.929Z,1013.77
2018-12-23T02:56:58.094Z,1013.74
2018-12-23T02:57:24.190Z,1013.69
2018-12-23T02:57:50.316Z,1013.7
2018-12-23T02:58:16.413Z,1013.76
2018-12-23T02:58:42.545Z,1013.74
2018-12-23T02:59:08.693Z,1013.74
2018-12-23T02:59:34.798Z,1013.79
2018-12-23T03:00:00.964Z,1013.76
2018-12-23T03:00:27.091Z,1013.75
2018-12-23T03:00:53.201Z,1013.73
2018-12-23T03:01:19.308Z,1013.81
2018-12-23T03:01:45.411Z,1013.75
2018-12-23T03:02:11.527Z,1013.79
2018-12-23T03:02:37.654Z,1013.75
2018-12-23T03:03:03.821Z,1013.73
2018-12-23T03:03:29.943Z,1013.71
2018-12-23T03:03:56.043Z,1013.73
2018-12-23T03:04:22.193Z,1013.76
2018-12-23T03:04:48.331Z,1013.72
2018-12-23T03:05:14.469Z,1013.69
2018-12-23T03:05:40.600Z,1013.68
2018-12-23T03:06:08.680Z,1013.68
2018-12-23T03:06:34.835Z,1013.68
2018-12-23T03:07:00.957Z,1013.73
2018-12-23T03:07:27.059Z,1013.7
2018-12-23T03:07:53.222Z,1013.71
2018-12-23T03:08:19.342Z,1013.7
2018-12-23T03:08:45.483Z,1013.71
2018-12-23T03:09:11.598Z,1013.72
2018-12-23T03:09:37.707Z,1013.7
2018-12-23T03:10:03.810Z,1013.71
2018-12-23T03:10:29.942Z,1013.71
2018-12-23T03:10:56.032Z,1013.74
2018-12-23T03:11:22.167Z,1013.73
2018-12-23T03:11:48.298Z,1013.74
2018-12-23T03:12:14.398Z,1013.72
2018-12-23T03:12:40.505Z,1013.72
2018-12-23T03:13:06.613Z,1013.67
2018-12-23T03:13:32.729Z,1013.7
2018-12-23T03:13:58.842Z,1013.71
2018-12-23T03:14:24.997Z,1013.67
2018-12-23T03:14:51.223Z,1013.72
2018-12-23T03:15:17.328Z,1013.68
2018-12-23T03:15:43.443Z,1013.67
2018-12-23T03:16:09.557Z,1013.7
2018-12-23T03:16:35.669Z,1013.67
2018-12-23T03:17:01.801Z,1013.66
2018-12-23T03:17:27.976Z,1013.68
2018-12-23T03:17:54.149Z,1013.65
2018-12-23T03:18:20.276Z,1013.66
2018-12-23T03:18:46.408Z,1013.62
2018-12-23T03:19:12.561Z,1013.62
2018-12-23T03:19:38.696Z,1013.61
2018-12-23T03:20:04.808Z,1013.62
2018-12-23T03:20:30.908Z,1013.64
2018-12-23T03:20:57.019Z,1013.58
2018-12-23T03:21:23.163Z,1013.57
2018-12-23T03:21:49.266Z,1013.59
2018-12-23T03:22:15.436Z,1013.58
2018-12-23T03:22:41.546Z,1013.53
2018-12-23T03:23:07.650Z,1013.56
2018-12-23T03:23:33.765Z,1013.57
2018-12-23T03:23:59.875Z,1013.59
2018-12-23T03:24:25.999Z,1013.62
2018-12-23T03:24:52.096Z,1013.63
2018-12-23T03:25:18.223Z,1013.61
2018-12-23T03:25:44.334Z,1013.61
2018-12-23T03:26:10.463Z,1013.53
2018-12-23T03:26:36.612Z,1013.52
2018-12-23T03:27:02.751Z,1013.54
2018-12-23T03:27:28.871Z,1013.5
2018-12-23T03:27:55.017Z,1013.55
2018-12-23T03:28:21.143Z,1013.53
2018-12-23T03:28:47.255Z,1013.48
2018-12-23T03:29:13.361Z,1013.52
2018-12-23T03:29:39.503Z,1013.54
2018-12-23T03:30:05.621Z,1013.52
2018-12-23T03:30:31.793Z,1013.58
2018-12-23T03:30:57.928Z,1013.58
2018-12-23T03:31:24.073Z,1013.59
2018-12-23T03:31:50.289Z,1013.58
2018-12-23T03:32:16.474Z,1013.57
2018-12-23T03:32:42.714Z,1013.62
2018-12-23T03:33:08.815Z,1013.56
2018-12-23T03:33:34.917Z,1013.6
2018-12-23T03:34:01.025Z,1013.61
2018-12-23T03:34:27.139Z,1013.59
2018-12-23T03:34:53.263Z,1013.57
2018-12-23T03:35:19.430Z,1013.64
2018-12-23T03:35:45.540Z,1013.62
2018-12-23T03:36:15.058Z,1013.62
2018-12-23T03:36:39.889Z,1013.58
2018-12-23T03:37:06.019Z,1013.58
2018-12-23T03:37:32.120Z,1013.61
2018-12-23T03:37:58.291Z,1013.57
2018-12-23T03:38:24.402Z,1013.61
2018-12-23T03:38:50.497Z,1013.55
2018-12-23T03:39:16.610Z,1013.56
2018-12-23T03:39:42.727Z,1013.57
2018-12-23T03:40:08.855Z,1013.56
2018-12-23T03:40:34.964Z,1013.55
2018-12-23T03:41:01.069Z,1013.58
2018-12-23T03:41:27.233Z,1013.52
2018-12-23T03:41:53.333Z,1013.54
2018-12-23T03:42:19.483Z,1013.54
2018-12-23T03:42:45.598Z,1013.57
2018-12-23T03:43:11.745Z,1013.54
2018-12-23T03:43:37.828Z,1013.54
2018-12-23T03:44:03.937Z,1013.58
2018-12-23T03:44:30.050Z,1013.57
2018-12-23T03:44:56.173Z,1013.57
2018-12-23T03:45:22.357Z,1013.58
2018-12-23T03:45:48.429Z,1013.58
2018-12-23T03:46:14.543Z,1013.67
2018-12-23T03:46:40.670Z,1013.63
2018-12-23T03:47:06.773Z,1013.66
2018-12-23T03:47:32.878Z,1013.66
2018-12-23T03:47:58.988Z,1013.62
2018-12-23T03:48:25.147Z,1013.6
2018-12-23T03:48:51.276Z,1013.69
2018-12-23T03:49:18.358Z,1013.66
2018-12-23T03:49:44.497Z,1013.6
2018-12-23T03:50:10.779Z,1013.62
2018-12-23T03:50:36.889Z,1013.65
2018-12-23T03:51:02.997Z,1013.62
2018-12-23T03:51:29.116Z,1013.69
2018-12-23T03:51:55.233Z,1013.69
2018-12-23T03:52:21.372Z,1013.67
2018-12-23T03:52:47.525Z,1013.69
2018-12-23T03:53:13.610Z,1013.65
2018-12-23T03:53:39.770Z,1013.67
2018-12-23T03:54:05.868Z,1013.65
2018-12-23T03:54:32.007Z,1013.65
2018-12-23T03:54:58.189Z,1013.66
2018-12-23T03:55:24.292Z,1013.65
2018-12-23T03:55:50.414Z,1013.61
2018-12-23T03:56:16.541Z,1013.66
2018-12-23T03:56:42.749Z,1013.67
2018-12-23T03:57:08.860Z,1013.65
2018-12-23T03:57:35.000Z,1013.66
2018-12-23T03:58:01.135Z,1013.65
2018-12-23T03:58:27.316Z,1013.67
2018-12-23T03:58:53.404Z,1013.7
2018-12-23T03:59:19.514Z,1013.68
2018-12-23T03:59:45.622Z,1013.7
2018-12-23T04:00:11.722Z,1013.7
2018-12-23T04:00:37.853Z,1013.71
2018-12-23T04:01:03.979Z,1013.64
2018-12-23T04:01:30.122Z,1013.66
2018-12-23T04:01:56.238Z,1013.63
2018-12-23T04:02:22.338Z,1013.61
2018-12-23T04:02:48.459Z,1013.63
2018-12-23T04:03:14.590Z,1013.63
2018-12-23T04:03:40.818Z,1013.54
2018-12-23T04:04:06.959Z,1013.57
2018-12-23T04:04:33.061Z,1013.54
2018-12-23T04:04:59.208Z,1013.53
2018-12-23T04:05:25.312Z,1013.53
2018-12-23T04:05:51.474Z,1013.57
2018-12-23T04:06:24.379Z,1013.55
2018-12-23T04:06:45.761Z,1013.54
2018-12-23T04:07:11.865Z,1013.57
2018-12-23T04:07:37.979Z,1013.52
2018-12-23T04:08:04.081Z,1013.52
2018-12-23T04:08:30.209Z,1013.53
2018-12-23T04:08:56.347Z,1013.55
2018-12-23T04:09:22.455Z,1013.56
2018-12-23T04:09:48.600Z,1013.55
2018-12-23T04:10:14.702Z,1013.52
2018-12-23T04:10:40.958Z,1013.51
2018-12-23T04:11:07.065Z,1013.54
2018-12-23T04:11:33.183Z,1013.55
2018-12-23T04:11:59.366Z,1013.5
2018-12-23T04:12:25.442Z,1013.49
2018-12-23T04:12:51.573Z,1013.52
2018-12-23T04:13:17.665Z,1013.51
2018-12-23T04:13:43.813Z,1013.44
2018-12-23T04:14:09.920Z,1013.45
2018-12-23T04:14:36.048Z,1013.45
2018-12-23T04:15:02.150Z,1013.48
2018-12-23T04:15:28.373Z,1013.49
2018-12-23T04:15:54.512Z,1013.5
2018-12-23T04:16:20.623Z,1013.49
2018-12-23T04:16:46.728Z,1013.53
2018-12-23T04:17:12.867Z,1013.45
2018-12-23T04:17:38.977Z,1013.48
2018-12-23T04:18:05.113Z,1013.5
2018-12-23T04:18:31.230Z,1013.56
2018-12-23T04:18:57.334Z,1013.5
2018-12-23T04:19:23.533Z,1013.47
2018-12-23T04:19:49.626Z,1013.41
2018-12-23T04:20:15.908Z,1013.47
2018-12-23T04:20:42.054Z,1013.42
2018-12-23T04:21:08.226Z,1013.48
2018-12-23T04:21:34.353Z,1013.42
2018-12-23T04:22:00.490Z,1013.34
2018-12-23T04:22:26.598Z,1013.39
2018-12-23T04:22:52.717Z,1013.37
2018-12-23T04:23:18.827Z,1013.35
2018-12-23T04:23:44.938Z,1013.33
2018-12-23T04:24:11.080Z,1013.31
2018-12-23T04:24:37.231Z,1013.32
2018-12-23T04:25:03.351Z,1013.36
2018-12-23T04:25:29.450Z,1013.33
2018-12-23T04:25:55.595Z,1013.3
2018-12-23T04:26:22.003Z,1013.36
2018-12-23T04:26:48.222Z,1013.29
2018-12-23T04:27:14.346Z,1013.31
2018-12-23T04:27:40.490Z,1013.29
2018-12-23T04:28:06.644Z,1013.3
2018-12-23T04:28:32.848Z,1013.33
2018-12-23T04:28:58.955Z,1013.32
2018-12-23T04:29:25.061Z,1013.32
2018-12-23T04:29:51.210Z,1013.28
2018-12-23T04:30:17.325Z,1013.28
2018-12-23T04:30:43.601Z,1013.33
2018-12-23T04:31:09.654Z,1013.34
2018-12-23T04:31:35.792Z,1013.32
2018-12-23T04:32:01.885Z,1013.29
2018-12-23T04:32:28.019Z,1013.3
2018-12-23T04:32:54.137Z,1013.26
2018-12-23T04:33:20.270Z,1013.28
2018-12-23T04:33:46.378Z,1013.27
2018-12-23T04:34:12.544Z,1013.26
2018-12-23T04:34:38.660Z,1013.24
2018-12-23T04:35:04.842Z,1013.26
2018-12-23T04:35:30.941Z,1013.25
2018-12-23T04:35:57.139Z,1013.23
2018-12-23T04:36:23.279Z,1013.24
2018-12-23T04:36:50.392Z,1013.24
2018-12-23T04:37:16.553Z,1013.22
2018-12-23T04:37:42.700Z,1013.2
2018-12-23T04:38:08.809Z,1013.21
2018-12-23T04:38:34.918Z,1013.2
2018-12-23T04:39:01.015Z,1013.23
2018-12-23T04:39:27.140Z,1013.27
2018-12-23T04:39:53.277Z,1013.25
2018-12-23T04:40:19.457Z,1013.24
2018-12-23T04:40:45.522Z,1013.23
2018-12-23T04:41:11.687Z,1013.24
2018-12-23T04:41:37.771Z,1013.27
2018-12-23T04:42:03.909Z,1013.27
2018-12-23T04:42:30.033Z,1013.28
2018-12-23T04:42:56.147Z,1013.25
2018-12-23T04:43:22.284Z,1013.23
2018-12-23T04:43:48.463Z,1013.24
2018-12-23T04:44:14.588Z,1013.23
2018-12-23T04:44:40.709Z,1013.24
2018-12-23T04:45:06.847Z,1013.23
2018-12-23T04:45:32.968Z,1013.23
2018-12-23T04:45:59.104Z,1013.14
2018-12-23T04:46:25.217Z,1013.2
2018-12-23T04:46:51.322Z,1013.24
2018-12-23T04:47:17.445Z,1013.24
2018-12-23T04:47:43.573Z,1013.25
2018-12-23T04:48:09.703Z,1013.19
2018-12-23T04:48:35.895Z,1013.23
2018-12-23T04:49:01.990Z,1013.2
2018-12-23T04:49:28.194Z,1013.25
2018-12-23T04:49:54.293Z,1013.23
2018-12-23T04:50:20.441Z,1013.21
2018-12-23T04:50:46.546Z,1013.16
2018-12-23T04:51:12.712Z,1013.23
2018-12-23T04:51:38.820Z,1013.18
2018-12-23T04:52:04.970Z,1013.24
2018-12-23T04:52:31.115Z,1013.15
2018-12-23T04:52:57.251Z,1013.17
2018-12-23T04:53:23.389Z,1013.22
2018-12-23T04:53:49.505Z,1013.24
2018-12-23T04:54:15.643Z,1013.19
2018-12-23T04:54:41.726Z,1013.23
2018-12-23T04:55:07.899Z,1013.23
2018-12-23T04:55:35.001Z,1013.23
2018-12-23T04:56:01.165Z,1013.26
2018-12-23T04:56:27.304Z,1013.24
2018-12-23T04:56:53.436Z,1013.19
2018-12-23T04:57:19.573Z,1013.2
2018-12-23T04:57:45.662Z,1013.19
2018-12-23T04:58:11.805Z,1013.17
2018-12-23T04:58:37.943Z,1013.2
2018-12-23T04:59:04.108Z,1013.25
2018-12-23T04:59:30.215Z,1013.2
2018-12-23T04:59:56.313Z,1013.21
2018-12-23T05:00:22.492Z,1013.24
2018-12-23T05:00:48.668Z,1013.22
2018-12-23T05:01:14.875Z,1013.23
2018-12-23T05:01:41.007Z,1013.29
2018-12-23T05:02:07.223Z,1013.23
2018-12-23T05:02:33.340Z,1013.17
2018-12-23T05:02:59.520Z,1013.22
2018-12-23T05:03:25.595Z,1013.22
2018-12-23T05:03:53.612Z,1013.24
2018-12-23T05:04:19.740Z,1013.2
2018-12-23T05:04:45.836Z,1013.23
2018-12-23T05:05:12.012Z,1013.26
2018-12-23T05:05:38.103Z,1013.22
2018-12-23T05:06:04.206Z,1013.17
2018-12-23T05:06:30.330Z,1013.14
2018-12-23T05:06:58.443Z,1013.18
2018-12-23T05:07:24.549Z,1013.14
2018-12-23T05:07:50.667Z,1013.2
2018-12-23T05:08:16.847Z,1013.16
2018-12-23T05:08:42.949Z,1013.13
2018-12-23T05:09:09.080Z,1013.13
2018-12-23T05:09:35.190Z,1013.12
2018-12-23T05:10:01.298Z,1013.13
2018-12-23T05:10:27.404Z,1013.07
2018-12-23T05:10:53.507Z,1013.12
2018-12-23T05:11:19.634Z,1013.14
2018-12-23T05:11:45.724Z,1013.12
2018-12-23T05:12:11.866Z,1013.11
2018-12-23T05:12:37.972Z,1013.11
2018-12-23T05:13:04.132Z,1013.07
2018-12-23T05:13:30.229Z,1013.1
2018-12-23T05:13:56.338Z,1013.07
2018-12-23T05:14:22.479Z,1013.05
2018-12-23T05:14:49.571Z,1013.09
2018-12-23T05:15:15.729Z,1013.06
2018-12-23T05:15:41.858Z,1013.06
2018-12-23T05:16:07.985Z,1013.1
2018-12-23T05:16:34.302Z,1013.06
2018-12-23T05:17:00.499Z,1013.06
2018-12-23T05:17:26.767Z,1013.06
2018-12-23T05:17:52.890Z,1012.97
2018-12-23T05:18:18.939Z,1013.08
2018-12-23T05:18:45.044Z,1013.11
2018-12-23T05:19:11.188Z,1013.09
2018-12-23T05:19:37.295Z,1013.12
2018-12-23T05:20:03.470Z,1013.07
2018-12-23T05:20:29.658Z,1013.06
2018-12-23T05:20:55.782Z,1013.04
2018-12-23T05:21:21.911Z,1013.09
2018-12-23T05:21:48.015Z,1013.03
2018-12-23T05:22:14.128Z,1013.06
2018-12-23T05:22:40.269Z,1013.07